Terminal Aerodrome Forecast
Issued by NWS

Home | Current Version | Previous Version | Text Only | Print | Product List | Glossary On
Versions: 1 2 3 4 5 6 7 8 9 10 11 12 13
000
FTUS41 KAKQ 290534
TAFPHF
TAF
KPHF 290534Z 2906/3006 11003KT P6SM BKN250
     FM290900 00000KT P6SM SCT015 BKN250
      TEMPO 2909/2912 4SM BR SCT008 SCT015 BKN250
     FM291400 12007KT P6SM -SHRA SCT020 BKN120 OVC200
     FM291700 12007KT 4SM RA BR BKN025 BKN070 OVC120=

USA.gov is the U.S. government's official web portal to all federal, state and local government web resources and services.